Terminal Aerodrome Forecast
Issued by NWS Cleveland, OH

Home | Current Version | Previous Version | Graphics & Text | Print | Product List | Glossary On
Versions: 1 2 3 4 5 6 7 8 9 10 11 12 13 14 15 16 17 18
000
FTUS41 KCLE 241100
TAFERI
TAF
KERI 241128Z 2412/2512 28008KT P6SM FEW035
     FM241500 30012KT P6SM FEW040 SCT250
     FM250200 33002KT P6SM BKN200
     FM251000 11004KT P6SM SCT120 BKN200=

USA.gov is the U.S. government's official web portal to all federal, state and local government web resources and services.